Time;durP1;ratioP1;P1;durP2;ratioP2;P2;SDS_P1;SDS_P2;PMS_P1;PMS_P2;Temp;Humidity;BMP_temperature;BMP_pressure;BME280_temperature;BME280_humidity;BME280_pressure;Samples;Min_cycle;Max_cycle;Signal;HPM_P1;HPM_P2
2022/04/28 05:04:35;;;;;;;;;;;;;;;10.87;68.40;97496.22;4248703;27;11244;-75
2022/04/28 05:06:37;;;;;;;;;;;;;;;10.93;68.41;97487.56;4230838;28;5668;-74
2022/04/28 05:08:39;;;;;;;;;;;;;;;10.72;71.24;97498.00;4231977;28;5747;-73
2022/04/28 05:10:40;;;;;;;;;;;;;;;10.67;70.32;97495.06;4217474;28;5768;-74
2022/04/28 05:12:42;;;;;;;;;;;;;;;10.75;70.60;97505.56;4214892;28;5697;-74
2022/04/28 05:14:45;;;;;;;;;;;;;;;10.83;69.69;97497.56;4221617;28;5691;-75
2022/04/28 05:16:47;;;;;;;;;;;;;;;10.90;70.06;97503.00;4219978;28;5697;-74
2022/04/28 05:18:49;;;;;;;;;;;;;;;10.90;69.56;97503.81;4223772;28;5770;-74
2022/04/28 05:20:50;;;;;;;;;;;;;;;10.81;70.50;97510.16;4231271;28;5467;-75
2022/04/28 05:22:52;;;;;;;;;;;;;;;10.90;70.29;97508.28;4231298;28;7708;-75
2022/04/28 05:24:53;;;;;;;;;;;;;;;10.87;71.41;97513.91;4215935;28;5878;-75
2022/04/28 05:26:55;;;;;;;;;;;;;;;10.86;70.30;97509.63;4224818;28;5676;-75
2022/04/28 05:28:57;;;;;;;;;;;;;;;10.87;70.67;97517.38;4225227;28;5717;-75
2022/04/28 05:30:58;;;;;;;;;;;;;;;10.86;70.47;97517.56;4222083;28;6479;-75
2022/04/28 05:33:00;;;;;;;;;;;;;;;10.71;72.18;97515.69;4226916;28;8077;-75
2022/04/28 05:35:01;;;;;;;;;;;;;;;10.80;70.83;97524.38;4221693;28;5727;-75
2022/04/28 05:37:04;;;;;;;;;;;;;;;10.87;70.30;97519.19;4221073;28;5676;-74
2022/04/28 05:39:06;;;;;;;;;;;;;;;10.89;70.54;97518.03;4221059;28;5656;-74
2022/04/28 05:41:08;;;;;;;;;;;;;;;10.91;70.47;97523.97;4224966;28;5734;-74
2022/04/28 05:45:43;;;;;;;;;;;;;;;10.98;69.62;97538.13;4231294;28;5791;-75
2022/04/28 05:47:44;;;;;;;;;;;;;;;11.01;69.54;97526.38;4231363;28;5671;-75
2022/04/28 05:49:46;;;;;;;;;;;;;;;10.97;69.86;97531.19;4230044;28;5687;-75
2022/04/28 05:51:48;;;;;;;;;;;;;;;10.97;69.74;97533.00;4222204;28;5718;-75
2022/04/28 05:53:50;;;;;;;;;;;;;;;10.96;69.38;97536.66;4221580;28;5671;-75
2022/04/28 05:55:52;;;;;;;;;;;;;;;10.96;69.43;97539.31;4220810;28;5866;-74
2022/04/28 05:57:54;;;;;;;;;;;;;;;10.64;71.26;97545.63;4222716;28;5171;-74
2022/04/28 05:59:55;;;;;;;;;;;;;;;10.50;71.57;97544.56;4219197;28;5693;-66
2022/04/28 06:01:58;;;;;;;;;;;;;;;10.82;70.04;97543.53;4232229;27;5683;-73
2022/04/28 06:03:59;;;;;;;;;;;;;;;11.06;69.21;97545.19;4217026;28;5664;-73
2022/04/28 06:06:01;;;;;;;;;;;;;;;11.07;69.41;97552.13;4203865;28;5719;-76
2022/04/28 06:08:03;;;;;;;;;;;;;;;11.02;70.03;97552.66;4206191;28;6025;-71
2022/04/28 06:10:06;;;;;;;;;;;;;;;11.28;68.70;97554.09;4207885;28;7195;-77
2022/04/28 06:12:08;;;;;;;;;;;;;;;11.41;68.32;97556.94;4211715;28;5960;-72
2022/04/28 06:14:10;;;;;;;;;;;;;;;11.40;67.86;97557.97;4203942;28;5837;-74
2022/04/28 06:16:11;;;;;;;;;;;;;;;11.40;68.21;97557.97;4206186;28;5891;-74
2022/04/28 06:18:13;;;;;;;;;;;;;;;11.53;67.84;97565.28;4192650;28;5874;-74
2022/04/28 06:20:14;;;;;;;;;;;;;;;11.63;68.03;97564.03;4206060;28;6019;-73
2022/04/28 06:22:18;;;;;;;;;;;;;;;11.75;67.80;97561.75;4207345;28;5772;-73
2022/04/28 06:24:19;;;;;;;;;;;;;;;11.89;67.54;97557.50;4216549;28;5759;-74
2022/04/28 06:26:21;;;;;;;;;;;;;;;12.09;66.91;97563.88;4214901;28;5787;-73
2022/04/28 06:28:23;;;;;;;;;;;;;;;12.27;66.53;97568.00;4216900;28;5926;-73
2022/04/28 06:30:25;;;;;;;;;;;;;;;12.41;66.19;97564.50;4215554;28;5715;-73
2022/04/28 06:32:26;;;;;;;;;;;;;;;12.57;65.72;97560.78;4216948;28;5802;-73
2022/04/28 06:34:28;;;;;;;;;;;;;;;12.73;65.83;97571.19;4216680;28;5767;-74
2022/04/28 06:36:29;;;;;;;;;;;;;;;12.74;65.88;97564.88;4215500;28;5695;-74
2022/04/28 06:38:31;;;;;;;;;;;;;;;12.85;66.22;97569.69;4217031;28;5759;-74
2022/04/28 06:40:33;;;;;;;;;;;;;;;12.94;66.05;97570.41;4209110;28;5681;-73
2022/04/28 06:42:35;;;;;;;;;;;;;;;12.95;66.21;97569.38;4203057;28;5784;-74
2022/04/28 06:44:36;;;;;;;;;;;;;;;12.99;66.14;97570.63;4202252;28;5685;-74
2022/04/28 06:46:39;;;;;;;;;;;;;;;12.86;66.28;97571.31;4201160;28;5793;-74
2022/04/28 06:48:41;;;;;;;;;;;;;;;12.73;66.18;97579.97;4202577;28;5701;-74
2022/04/28 06:50:43;;;;;;;;;;;;;;;12.17;68.04;97577.06;4202520;28;5939;-74
2022/04/28 06:52:44;;;;;;;;;;;;;;;12.36;67.26;97569.53;4202564;28;5709;-74
2022/04/28 06:54:46;;;;;;;;;;;;;;;12.37;67.46;97576.50;4202281;28;5792;-73
2022/04/28 06:56:48;;;;;;;;;;;;;;;12.33;67.07;97569.91;4201310;28;5704;-73
2022/04/28 06:58:49;;;;;;;;;;;;;;;12.33;67.51;97569.91;4202430;28;5807;-73
2022/04/28 07:00:51;;;;;;;;;;;;;;;12.33;67.01;97572.53;4202385;28;5714;-73
2022/04/28 07:02:53;;;;;;;;;;;;;;;12.16;67.99;97575.41;4207022;28;5953;-73
2022/04/28 07:04:58;;;;;;;;;;;;;;;12.17;68.16;97577.06;4206808;28;5697;-73
2022/04/28 07:06:59;;;;;;;;;;;;;;;11.86;67.85;97579.88;4213812;28;5793;-73
2022/04/28 07:09:01;;;;;;;;;;;;;;;11.80;68.67;97582.44;4210842;28;5705;-73
2022/04/28 07:11:03;;;;;;;;;;;;;;;11.84;68.10;97586.38;4186310;28;5792;-72
2022/04/28 07:13:04;;;;;;;;;;;;;;;11.90;68.03;97586.47;4210162;28;5771;-73
2022/04/28 07:15:06;;;;;;;;;;;;;;;11.88;68.11;97577.03;4200056;28;5686;-72
2022/04/28 07:17:08;;;;;;;;;;;;;;;11.92;67.98;97586.28;4203853;28;5757;-71
2022/04/28 07:19:09;;;;;;;;;;;;;;;11.99;67.84;97579.25;4209970;28;5797;-72
2022/04/28 07:21:11;;;;;;;;;;;;;;;11.90;67.50;97586.47;4210468;28;5676;-72
2022/04/28 07:23:14;;;;;;;;;;;;;;;11.88;67.20;97585.81;4217392;28;5727;-72
2022/04/28 07:25:16;;;;;;;;;;;;;;;11.82;67.70;97585.72;4209503;28;5697;-72
2022/04/28 07:27:17;;;;;;;;;;;;;;;11.79;67.62;97586.06;4201670;28;5708;-71
2022/04/28 07:29:19;;;;;;;;;;;;;;;11.78;67.38;97582.59;4201926;28;5776;-71
2022/04/28 07:31:21;;;;;;;;;;;;;;;11.79;67.34;97583.41;4200376;28;5693;-73
2022/04/28 07:33:23;;;;;;;;;;;;;;;11.65;67.42;97577.06;4210178;28;5780;-71
2022/04/28 07:35:26;;;;;;;;;;;;;;;11.63;67.33;97574.63;4214745;28;5815;-76
2022/04/28 07:37:28;;;;;;;;;;;;;;;11.75;66.71;97576.81;4206734;28;5875;-71
2022/04/28 07:39:29;;;;;;;;;;;;;;;11.70;67.66;97580.03;4198642;28;5772;-71
2022/04/28 07:41:31;;;;;;;;;;;;;;;11.77;67.32;97574.81;4198821;28;5780;-73
2022/04/28 07:43:33;;;;;;;;;;;;;;;11.87;67.09;97578.88;4197422;28;6651;-74
2022/04/28 07:45:34;;;;;;;;;;;;;;;11.85;66.43;97577.41;4180816;28;5873;-74
2022/04/28 07:47:36;;;;;;;;;;;;;;;11.67;67.38;97580.41;4198842;28;5901;-74
2022/04/28 07:49:38;;;;;;;;;;;;;;;11.79;67.04;97586.06;4198221;28;5079;-74
2022/04/28 07:51:41;;;;;;;;;;;;;;;11.88;66.84;97582.34;4198733;28;5808;-73
2022/04/28 07:53:42;;;;;;;;;;;;;;;11.79;67.13;97586.06;4198724;28;5831;-74
2022/04/28 07:56:10;;;;;;;;;;;;;;;11.84;66.84;97581.88;4198658;28;5800;-74
2022/04/28 07:58:06;;;;;;;;;;;;;;;11.99;66.13;97589.84;4198593;28;5788;-73
2022/04/28 08:00:09;;;;;;;;;;;;;;;12.01;66.02;97593.16;4198289;28;5828;-74
2022/04/28 08:02:13;;;;;;;;;;;;;;;11.85;67.02;97588.00;4212698;28;5775;-73
2022/04/28 08:04:15;;;;;;;;;;;;;;;11.77;67.78;97591.53;4213636;28;6114;-73
2022/04/28 08:06:17;;;;;;;;;;;;;;;11.80;67.39;97585.09;4213736;28;7346;-73
2022/04/28 08:08:20;;;;;;;;;;;;;;;11.95;67.27;97593.88;4215325;28;5771;-73
2022/04/28 08:10:21;;;;;;;;;;;;;;;12.03;67.37;97592.97;4214783;28;5764;-73
2022/04/28 08:12:23;;;;;;;;;;;;;;;11.88;68.46;97592.94;4216982;28;5755;-72
2022/04/28 08:14:45;;;;;;;;;;;;;;;11.61;68.12;97595.16;4215194;28;5668;-72
2022/04/28 08:16:50;;;;;;;;;;;;;;;11.87;67.53;97597.41;4207219;28;5784;-72
2022/04/28 08:18:52;;;;;;;;;;;;;;;11.98;67.81;97596.16;4212084;28;5676;-72
2022/04/28 08:20:54;;;;;;;;;;;;;;;12.06;67.00;97600.53;4206216;28;5721;-72
2022/04/28 08:22:56;;;;;;;;;;;;;;;12.15;66.35;97591.50;4201016;28;5799;-72
2022/04/28 08:24:58;;;;;;;;;;;;;;;12.20;66.65;97603.19;4200635;28;5674;-73
2022/04/28 08:27:00;;;;;;;;;;;;;;;12.13;66.29;97601.47;4200880;28;5708;-73
2022/04/28 08:29:01;;;;;;;;;;;;;;;11.99;66.04;97600.44;4200961;28;5761;-74
2022/04/28 08:31:03;;;;;;;;;;;;;;;12.01;66.47;97597.63;4201037;28;6337;-73
2022/04/28 08:33:05;;;;;;;;;;;;;;;12.05;66.98;97602.38;4200851;28;7044;-73
2022/04/28 08:35:08;;;;;;;;;;;;;;;12.16;66.27;97593.97;4201269;28;5702;-73
2022/04/28 08:37:10;;;;;;;;;;;;;;;12.05;66.84;97615.63;4199734;28;5709;-73
2022/04/28 08:39:12;;;;;;;;;;;;;;;12.18;66.46;97601.72;4200601;28;5851;-71
2022/04/28 08:41:19;;;;;;;;;;;;;;;12.19;65.91;97604.19;4200861;28;5789;-72
2022/04/28 08:43:21;;;;;;;;;;;;;;;12.27;66.03;97608.59;4199635;28;5696;-73
2022/04/28 08:45:29;;;;;;;;;;;;;;;12.34;65.70;97606.81;4199428;28;5709;-72
2022/04/28 08:47:31;;;;;;;;;;;;;;;12.26;66.37;97608.78;4200412;28;5772;-72
2022/04/28 08:49:33;;;;;;;;;;;;;;;12.40;65.12;97611.41;4200960;28;5853;-72
2022/04/28 08:51:37;;;;;;;;;;;;;;;12.50;65.08;97608.47;4200820;28;5698;-72
2022/04/28 08:53:40;;;;;;;;;;;;;;;12.61;65.03;97605.34;4199608;28;5804;-73
2022/04/28 08:55:42;;;;;;;;;;;;;;;12.46;64.89;97597.41;4200366;28;5688;-72
2022/04/28 08:57:44;;;;;;;;;;;;;;;12.48;65.24;97610.50;4200825;28;5773;-72
2022/04/28 08:59:48;;;;;;;;;;;;;;;12.58;64.38;97603.06;4200534;28;5697;-72
2022/04/28 09:01:50;;;;;;;;;;;;;;;12.55;64.44;97606.06;4200888;28;5726;-73
2022/04/28 09:03:52;;;;;;;;;;;;;;;12.52;64.85;97606.44;4198993;28;5709;-72
2022/04/28 09:06:18;;;;;;;;;;;;;;;12.42;65.39;97606.72;4206164;28;5676;-72
2022/04/28 09:08:20;;;;;;;;;;;;;;;12.50;65.22;97608.47;4199316;28;5724;-72
2022/04/28 09:10:25;;;;;;;;;;;;;;;12.63;64.96;97607.81;4216849;28;5725;-72
2022/04/28 09:12:27;;;;;;;;;;;;;;;12.71;64.19;97600.56;4217368;28;5679;-73
2022/04/28 09:14:30;;;;;;;;;;;;;;;12.74;64.35;97608.16;4217432;28;5656;-74
2022/04/28 09:16:32;;;;;;;;;;;;;;;12.74;63.96;97605.50;4217381;28;5672;-74
2022/04/28 09:18:34;;;;;;;;;;;;;;;12.74;64.18;97610.78;4208544;28;5710;-73
2022/04/28 09:20:37;;;;;;;;;;;;;;;12.70;65.00;97608.72;4208232;28;5684;-74
2022/04/28 09:22:43;;;;;;;;;;;;;;;12.74;65.14;97599.38;4217512;28;5752;-74
2022/04/28 09:24:45;;;;;;;;;;;;;;;12.75;65.00;97601.00;4215682;28;5700;-74
2022/04/28 09:26:48;;;;;;;;;;;;;;;12.73;64.75;97603.84;4217558;28;5680;-73
2022/04/28 09:28:53;;;;;;;;;;;;;;;12.79;64.53;97605.75;4217080;28;5668;-73
2022/04/28 09:30:56;;;;;;;;;;;;;;;12.77;64.52;97598.97;4217575;28;5684;-73
2022/04/28 09:33:08;;;;;;;;;;;;;;;12.64;65.59;97601.50;4198973;28;5739;-74
2022/04/28 09:35:11;;;;;;;;;;;;;;;12.66;65.61;97608.25;4216089;28;5863;-73
2022/04/28 09:37:19;;;;;;;;;;;;;;;12.56;65.80;97607.72;4217229;28;5873;-73
2022/04/28 09:44:05;;;;;;;;;;;;;;;13.01;63.94;97592.50;4220409;28;5684;-74
2022/04/28 09:46:08;;;;;;;;;;;;;;;13.05;64.66;97597.25;4220246;28;5668;-73
2022/04/28 09:48:10;;;;;;;;;;;;;;;12.93;64.61;97592.63;4220241;28;5680;-73
2022/04/28 09:50:14;;;;;;;;;;;;;;;13.12;64.37;97602.63;4220218;28;5668;-73
2022/04/28 09:52:15;;;;;;;;;;;;;;;13.15;63.88;97596.13;4220432;28;5687;-73
2022/04/28 09:54:17;;;;;;;;;;;;;;;13.03;64.29;97595.81;4219621;28;5826;-73
2022/04/28 09:56:27;;;;;;;;;;;;;;;13.12;64.23;97598.13;4220162;28;5770;-74
2022/04/28 09:58:38;;;;;;;;;;;;;;;13.24;62.81;97592.34;4220163;28;5770;-73
2022/04/28 10:00:40;;;;;;;;;;;;;;;13.20;63.32;97597.22;4220302;28;5798;-73
2022/04/28 10:02:42;;;;;;;;;;;;;;;13.17;64.05;97602.06;4219596;28;5837;-73
2022/04/28 10:04:44;;;;;;;;;;;;;;;13.17;64.09;97600.22;4220022;28;5751;-75
2022/04/28 10:06:47;;;;;;;;;;;;;;;13.34;63.92;97600.81;4219802;28;5814;-73
2022/04/28 10:08:51;;;;;;;;;;;;;;;13.19;63.88;97595.56;4220057;28;5767;-74
2022/04/28 10:10:58;;;;;;;;;;;;;;;13.33;63.61;97588.53;4219315;28;5680;-73
2022/04/28 10:13:00;;;;;;;;;;;;;;;13.37;62.84;97595.97;4218918;28;5759;-74
2022/04/28 10:15:04;;;;;;;;;;;;;;;13.45;62.79;97588.84;4219920;28;5748;-73
2022/04/28 10:17:11;;;;;;;;;;;;;;;13.25;62.91;97592.19;4219771;28;5751;-73
2022/04/28 10:19:21;;;;;;;;;;;;;;;13.19;63.55;97594.75;4219651;28;5691;-73
2022/04/28 10:21:29;;;;;;;;;;;;;;;13.12;63.53;97586.69;4219837;28;5672;-73
2022/04/28 10:33:21;;;;;;;;;;;;;;;13.31;62.71;97580.78;4219717;28;5675;-72
2022/04/28 10:36:04;;;;;;;;;;;;;;;13.36;63.91;97583.69;4219547;28;5681;-72
2022/04/28 10:38:14;;;;;;;;;;;;;;;13.48;62.95;97581.34;4219341;28;5673;-72
2022/04/28 10:40:21;;;;;;;;;;;;;;;13.51;62.29;97572.16;4219185;28;5672;-73
2022/04/28 10:42:29;;;;;;;;;;;;;;;13.66;62.86;97579.00;4219665;28;5668;-73
2022/04/28 10:44:32;;;;;;;;;;;;;;;13.62;62.05;97575.09;4219211;28;5716;-73
2022/04/28 10:46:34;;;;;;;;;;;;;;;13.67;61.07;97579.84;4218061;28;5684;-72
2022/04/28 10:48:41;;;;;;;;;;;;;;;13.76;61.82;97578.69;4219215;28;5664;-72
2022/04/28 10:51:18;;;;;;;;;;;;;;;13.87;62.02;97579.97;4219138;28;5722;-73
2022/04/28 10:53:20;;;;;;;;;;;;;;;13.98;61.53;97572.28;4218426;28;5759;-73
2022/04/28 10:55:23;;;;;;;;;;;;;;;14.06;60.97;97573.97;4217597;28;5684;-74
2022/04/28 10:57:36;;;;;;;;;;;;;;;14.03;60.01;97574.34;4219124;28;5704;-74
2022/04/28 10:59:39;;;;;;;;;;;;;;;14.15;60.86;97574.59;4219189;28;5695;-74
2022/04/28 11:01:42;;;;;;;;;;;;;;;14.20;60.15;97566.88;4219141;28;5673;-74
2022/04/28 11:03:47;;;;;;;;;;;;;;;14.23;60.18;97574.44;4217274;28;5768;-72
2022/04/28 11:05:52;;;;;;;;;;;;;;;14.23;60.47;97567.28;4218602;28;6269;-72
2022/04/28 11:07:54;;;;;;;;;;;;;;;14.27;60.38;97567.75;4219153;28;5719;-72
2022/04/28 11:10:07;;;;;;;;;;;;;;;14.35;60.68;97566.72;4218511;28;5656;-72
2022/04/28 11:12:13;;;;;;;;;;;;;;;14.24;60.50;97568.94;4218589;28;5758;-72
2022/04/28 11:14:15;;;;;;;;;;;;;;;14.41;60.50;97563.28;4217480;28;6373;-73
2022/04/28 11:16:18;;;;;;;;;;;;;;;14.37;60.30;97557.53;4218772;28;5728;-72
2022/04/28 11:18:21;;;;;;;;;;;;;;;14.42;60.44;97563.09;4217392;28;5687;-73
2022/04/28 11:20:29;;;;;;;;;;;;;;;14.45;60.40;97557.41;4218811;28;5696;-73
2022/04/28 11:22:31;;;;;;;;;;;;;;;14.51;60.51;97561.94;4218728;28;5660;-73
2022/04/28 11:24:33;;;;;;;;;;;;;;;14.51;60.38;97561.94;4217247;28;6346;-73
2022/04/28 11:26:36;;;;;;;;;;;;;;;14.43;60.31;97564.72;4218771;28;5676;-73
2022/04/28 11:28:40;;;;;;;;;;;;;;;14.48;60.75;97569.47;4218713;28;5672;-73
2022/04/28 11:30:42;;;;;;;;;;;;;;;14.60;60.43;97564.41;4218503;28;5676;-72
2022/04/28 11:32:51;;;;;;;;;;;;;;;14.65;60.48;97561.97;4218691;28;5748;-74
2022/04/28 11:34:55;;;;;;;;;;;;;;;14.81;60.33;97556.28;4218556;28;5691;-73
2022/04/28 11:37:22;;;;;;;;;;;;;;;14.89;60.27;97561.41;4217250;28;5876;-73
2022/04/28 11:39:24;;;;;;;;;;;;;;;14.85;60.68;97558.34;4218210;28;5739;-73
2022/04/28 11:41:34;;;;;;;;;;;;;;;14.87;60.10;97565.31;4217295;28;5671;-73
2022/04/28 11:43:36;;;;;;;;;;;;;;;14.93;60.43;97562.66;4218844;28;5680;-73
2022/04/28 11:45:37;;;;;;;;;;;;;;;15.04;60.11;97561.25;4218165;28;5847;-73
2022/04/28 11:47:46;;;;;;;;;;;;;;;15.00;59.59;97565.34;4214809;28;5978;-73
2022/04/28 11:49:51;;;;;;;;;;;;;;;15.01;60.11;97559.00;4210384;28;5672;-73
2022/04/28 11:51:54;;;;;;;;;;;;;;;15.06;60.17;97554.72;4203824;28;5820;-74
2022/04/28 11:53:56;;;;;;;;;;;;;;;15.14;60.46;97561.66;4200831;28;5689;-74
2022/04/28 11:55:57;;;;;;;;;;;;;;;14.97;60.06;97563.91;4195887;28;5705;-73
2022/04/28 11:57:59;;;;;;;;;;;;;;;15.02;60.24;97558.78;4218197;28;5811;-73
2022/04/28 12:00:05;;;;;;;;;;;;;;;15.19;60.23;97555.75;4208950;28;5705;-73
2022/04/28 12:02:28;;;;;;;;;;;;;;;15.28;59.66;97555.31;4207785;28;5667;-73
2022/04/28 12:04:30;;;;;;;;;;;;;;;15.32;60.16;97563.75;4217614;28;5668;-73
2022/04/28 12:06:33;;;;;;;;;;;;;;;15.34;59.81;97556.34;4217978;28;5831;-73
2022/04/28 12:08:34;;;;;;;;;;;;;;;15.38;59.55;97553.06;4215325;28;5688;-73
2022/04/28 12:15:20;;;;;;;;;;;;;;;15.46;58.87;97546.72;4201190;28;5701;-72
2022/04/28 12:19:59;;;;;;;;;;;;;;;15.43;59.44;97550.63;4199855;28;5847;-72
2022/04/28 12:22:06;;;;;;;;;;;;;;;15.57;59.25;97547.94;4204403;28;5086;-72
2022/04/28 12:24:12;;;;;;;;;;;;;;;15.63;59.83;97544.50;4215763;28;5700;-73
2022/04/28 12:26:15;;;;;;;;;;;;;;;15.67;59.08;97549.22;4217611;28;5656;-73
2022/04/28 12:28:19;;;;;;;;;;;;;;;15.70;58.67;97542.63;4200908;28;5698;-73
2022/04/28 12:30:21;;;;;;;;;;;;;;;15.76;58.71;97547.16;4210921;28;5848;-73
2022/04/28 12:32:23;;;;;;;;;;;;;;;15.85;58.99;97545.88;4213796;28;5716;-73
2022/04/28 12:34:37;;;;;;;;;;;;;;;15.89;58.31;97549.78;4200917;28;5697;-73
2022/04/28 12:36:46;;;;;;;;;;;;;;;15.93;58.10;97545.66;4200337;28;5776;-73
2022/04/28 12:38:52;;;;;;;;;;;;;;;15.94;57.44;97544.63;4210438;28;5676;-73
2022/04/28 12:40:55;;;;;;;;;;;;;;;15.95;58.10;97548.94;4217054;28;5755;-73
2022/04/28 12:42:57;;;;;;;;;;;;;;;15.97;58.00;97536.25;4216733;28;5668;-73
2022/04/28 12:45:04;;;;;;;;;;;;;;;16.00;57.13;97532.34;4214861;28;5668;-73
2022/04/28 12:47:05;;;;;;;;;;;;;;;15.93;56.79;97539.50;4211440;28;5656;-73
2022/04/28 12:49:16;;;;;;;;;;;;;;;16.00;57.44;97535.00;4200838;28;5702;-73
2022/04/28 12:51:20;;;;;;;;;;;;;;;15.88;57.15;97539.34;4213990;28;5660;-73
2022/04/28 12:53:33;;;;;;;;;;;;;;;15.92;57.14;97532.53;4200740;28;5775;-73
2022/04/28 12:55:36;;;;;;;;;;;;;;;16.04;57.62;97530.06;4200659;28;5693;-73
2022/04/28 12:57:38;;;;;;;;;;;;;;;16.09;57.33;97528.41;4200929;28;5697;-73
2022/04/28 12:59:42;;;;;;;;;;;;;;;16.15;56.64;97522.22;4200544;28;7086;-73
2022/04/28 13:01:46;;;;;;;;;;;;;;;16.16;57.20;97531.84;4200997;28;5756;-73
2022/04/28 13:04:02;;;;;;;;;;;;;;;16.21;56.91;97523.25;4208149;28;5907;-73
2022/04/28 13:06:04;;;;;;;;;;;;;;;16.19;57.26;97518.09;4205172;28;5762;-73
2022/04/28 13:08:07;;;;;;;;;;;;;;;16.18;57.12;97519.13;4212412;28;5788;-73
2022/04/28 13:10:12;;;;;;;;;;;;;;;16.22;57.13;97523.03;4204725;28;5762;-74
2022/04/28 13:12:14;;;;;;;;;;;;;;;16.32;56.99;97517.25;4204520;28;5878;-73
2022/04/28 13:14:18;;;;;;;;;;;;;;;16.35;56.65;97513.31;4208721;28;5148;-73
2022/04/28 13:16:21;;;;;;;;;;;;;;;16.39;57.07;97514.53;4208980;28;5685;-72
2022/04/28 13:18:23;;;;;;;;;;;;;;;16.44;56.44;97512.06;4209860;28;5671;-73
2022/04/28 13:20:27;;;;;;;;;;;;;;;16.36;56.80;97504.28;4214653;28;5664;-72
2022/04/28 13:22:28;;;;;;;;;;;;;;;16.48;57.31;97503.41;4215423;28;5706;-73
2022/04/28 13:24:30;;;;;;;;;;;;;;;16.55;56.95;97508.72;4216950;28;5680;-73
2022/04/28 13:26:32;;;;;;;;;;;;;;;16.53;56.97;97508.09;4219390;28;7050;-73
2022/04/28 13:28:34;;;;;;;;;;;;;;;16.59;56.88;97507.25;4209445;28;5783;-73
2022/04/28 13:30:36;;;;;;;;;;;;;;;16.56;56.25;97502.34;4210519;28;5740;-72
2022/04/28 13:32:37;;;;;;;;;;;;;;;16.56;55.95;97500.50;4217309;28;5672;-72
2022/04/28 13:34:39;;;;;;;;;;;;;;;16.65;56.48;97498.41;4220130;28;5759;-73
2022/04/28 13:36:43;;;;;;;;;;;;;;;16.70;56.61;97503.94;4217119;28;5684;-73
2022/04/28 13:38:46;;;;;;;;;;;;;;;16.72;56.15;97499.19;4219759;28;5735;-72
2022/04/28 13:40:47;;;;;;;;;;;;;;;16.71;56.13;97500.22;4217761;28;5659;-73
2022/04/28 13:42:49;;;;;;;;;;;;;;;16.67;55.73;97490.19;4215329;28;5756;-73
2022/04/28 13:44:51;;;;;;;;;;;;;;;16.73;56.33;97487.47;4219628;28;5846;-73
2022/04/28 13:46:52;;;;;;;;;;;;;;;16.78;56.34;97494.84;4219434;28;5676;-73
2022/04/28 13:48:54;;;;;;;;;;;;;;;16.82;56.37;97486.19;4213575;28;5938;-73
2022/04/28 13:50:56;;;;;;;;;;;;;;;16.80;55.75;97482.94;4203273;28;7474;-73
2022/04/28 13:53:05;;;;;;;;;;;;;;;16.77;56.38;97488.69;4203270;28;5702;-74
2022/04/28 13:55:07;;;;;;;;;;;;;;;16.82;55.95;97480.84;4203161;28;5756;-74
2022/04/28 13:57:09;;;;;;;;;;;;;;;16.75;56.24;97473.91;4201114;28;6085;-73
2022/04/28 13:59:11;;;;;;;;;;;;;;;16.82;56.48;97475.50;4215898;28;5843;-73
2022/04/28 14:01:13;;;;;;;;;;;;;;;16.93;56.41;97470.50;4210591;28;5729;-72
2022/04/28 14:03:15;;;;;;;;;;;;;;;16.97;56.43;97466.34;4207576;28;5656;-74
2022/04/28 14:05:17;;;;;;;;;;;;;;;17.05;56.63;97463.44;4209012;28;5732;-73
2022/04/28 14:07:19;;;;;;;;;;;;;;;17.17;56.37;97467.03;4213534;28;5848;-73
2022/04/28 14:09:20;;;;;;;;;;;;;;;17.19;56.28;97459.59;4203817;28;5686;-72
2022/04/28 14:11:22;;;;;;;;;;;;;;;17.23;55.66;97460.00;4206995;28;5895;-74
2022/04/28 14:13:24;;;;;;;;;;;;;;;17.18;55.22;97463.31;4207121;28;5705;-73
2022/04/28 14:15:25;;;;;;;;;;;;;;;17.20;55.43;97452.41;4185047;28;5790;-73
2022/04/28 14:17:29;;;;;;;;;;;;;;;17.22;55.73;97448.50;4208257;28;5771;-72
2022/04/28 14:19:32;;;;;;;;;;;;;;;17.30;55.81;97450.88;4207011;28;5705;-73
2022/04/28 14:21:36;;;;;;;;;;;;;;;17.37;55.17;97451.63;4213056;28;5828;-73
2022/04/28 14:23:37;;;;;;;;;;;;;;;17.40;55.17;97445.03;4203486;28;5130;-73
2022/04/28 14:25:39;;;;;;;;;;;;;;;17.45;55.38;97446.03;4206535;28;5776;-73
2022/04/28 14:27:41;;;;;;;;;;;;;;;17.45;55.25;97445.22;4214418;28;5774;-73
2022/04/28 14:29:42;;;;;;;;;;;;;;;17.45;55.16;97448.69;4213784;28;5755;-73
2022/04/28 14:31:44;;;;;;;;;;;;;;;17.46;55.22;97447.66;4208143;28;5668;-73
2022/04/28 14:33:55;;;;;;;;;;;;;;;17.43;55.13;97450.75;4219698;28;6033;-74
2022/04/28 14:35:57;;;;;;;;;;;;;;;17.43;55.00;97442.72;4210362;28;5672;-74
2022/04/28 14:37:59;;;;;;;;;;;;;;;17.50;55.20;97440.00;4201357;28;5864;-74
2022/04/28 14:40:01;;;;;;;;;;;;;;;17.49;55.08;97440.22;4202657;28;5784;-74
2022/04/28 14:42:05;;;;;;;;;;;;;;;17.53;55.25;97436.88;4202409;28;5689;-73
2022/04/28 14:44:27;;;;;;;;;;;;;;;17.57;54.42;97435.41;4202310;28;5843;-74
2022/04/28 14:46:29;;;;;;;;;;;;;;;17.62;55.13;97434.75;4211441;28;5751;-73
2022/04/28 14:52:19;;;;;;;;;;;;;;;17.55;54.22;97431.31;4217532;28;5671;-74
2022/04/28 14:53:12;;;;;;;;;;;;;;;17.72;54.45;97432.41;4202908;28;5686;-73
2022/04/28 14:55:14;;;;;;;;;;;;;;;17.78;54.34;97434.19;4217076;28;5687;-74
2022/04/28 14:57:16;;;;;;;;;;;;;;;17.80;54.59;97432.09;4214239;28;5751;-73
2022/04/28 14:59:17;;;;;;;;;;;;;;;17.71;53.62;97430.75;4207516;28;5824;-73
2022/04/28 15:01:19;;;;;;;;;;;;;;;17.75;54.29;97431.94;4213120;28;5795;-73
2022/04/28 15:03:21;;;;;;;;;;;;;;;17.77;54.26;97429.84;4202183;28;6877;-72
2022/04/28 15:05:23;;;;;;;;;;;;;;;17.81;53.46;97433.75;4207496;28;5672;-72
2022/04/28 15:07:25;;;;;;;;;;;;;;;17.78;53.20;97436.03;4211529;28;5770;-72
2022/04/28 15:09:27;;;;;;;;;;;;;;;17.74;53.93;97436.47;4208081;28;5703;-71
2022/04/28 15:11:28;;;;;;;;;;;;;;;17.76;53.46;97438.94;4202080;28;5771;-73
2022/04/28 15:13:32;;;;;;;;;;;;;;;17.79;53.63;97438.50;4206941;28;5690;-73
2022/04/28 15:15:35;;;;;;;;;;;;;;;17.75;52.06;97421.25;4205944;28;5686;-73
2022/04/28 15:17:37;;;;;;;;;;;;;;;17.85;53.05;97429.56;4202097;28;5757;-74
2022/04/28 15:19:39;;;;;;;;;;;;;;;17.95;51.48;97421.84;4208978;28;5869;-73
2022/04/28 15:21:41;;;;;;;;;;;;;;;17.97;52.48;97425.09;4202187;28;5685;-72
2022/04/28 15:23:44;;;;;;;;;;;;;;;18.02;53.52;97416.41;4200698;28;5847;-71
2022/04/28 15:25:46;;;;;;;;;;;;;;;18.03;53.44;97418.88;4216871;28;5739;-73
2022/04/28 15:27:48;;;;;;;;;;;;;;;18.16;53.51;97417.06;4207902;28;5793;-73
2022/04/28 15:29:50;;;;;;;;;;;;;;;18.17;53.11;97419.50;4200509;28;8254;-72
2022/04/28 15:32:11;;;;;;;;;;;;;;;18.18;52.26;97417.63;4203791;28;5697;-74
2022/04/28 15:34:14;;;;;;;;;;;;;;;18.19;50.37;97411.25;4202845;28;5849;-72
2022/04/28 15:36:15;;;;;;;;;;;;;;;18.26;51.36;97417.34;4208610;28;5680;-72
2022/04/28 15:38:18;;;;;;;;;;;;;;;18.30;51.09;97413.97;4204262;28;5701;-73
2022/04/28 15:40:20;;;;;;;;;;;;;;;18.20;49.07;97418.22;4209327;28;5969;-72
2022/04/28 15:42:21;;;;;;;;;;;;;;;18.21;50.84;97420.69;4217297;28;7681;-73
2022/04/28 15:44:23;;;;;;;;;;;;;;;18.23;49.88;97409.75;4216556;28;5809;-73
2022/04/28 15:46:25;;;;;;;;;;;;;;;18.23;50.24;97404.38;4206373;28;5702;-74
2022/04/28 15:48:27;;;;;;;;;;;;;;;18.27;50.30;97406.41;4200425;28;5752;-73
2022/04/28 15:50:28;;;;;;;;;;;;;;;18.28;49.33;97410.72;4205316;28;5769;-72
2022/04/28 15:52:33;;;;;;;;;;;;;;;18.35;47.78;97410.63;4215192;28;6066;-73
2022/04/28 15:54:34;;;;;;;;;;;;;;;18.32;48.34;97403.84;4201424;28;5074;-72
2022/04/28 15:56:37;;;;;;;;;;;;;;;18.34;48.60;97404.44;4201148;28;5911;-71
2022/04/28 15:58:39;;;;;;;;;;;;;;;18.34;48.61;97403.63;4200858;28;5813;-72
2022/04/28 16:00:48;;;;;;;;;;;;;;;18.39;47.01;97402.94;4202823;28;5988;-72
2022/04/28 16:02:49;;;;;;;;;;;;;;;18.45;48.12;97410.06;4201011;28;5880;-73
2022/04/28 16:04:52;;;;;;;;;;;;;;;18.41;48.07;97407.03;4204846;28;5825;-74
2022/04/28 16:06:53;;;;;;;;;;;;;;;18.37;47.76;97411.22;4211652;28;5795;-72
2022/04/28 16:08:56;;;;;;;;;;;;;;;18.35;45.27;97402.59;4201088;28;5717;-72
2022/04/28 16:10:57;;;;;;;;;;;;;;;18.35;47.05;97407.94;4200773;28;5681;-72
2022/04/28 16:12:59;;;;;;;;;;;;;;;18.36;47.62;97406.09;4206984;28;5851;-72
2022/04/28 16:15:01;;;;;;;;;;;;;;;18.34;47.07;97407.09;4217210;28;5759;-72
2022/04/28 16:17:03;;;;;;;;;;;;;;;18.33;46.72;97404.66;4201985;28;5686;-73
2022/04/28 16:19:05;;;;;;;;;;;;;;;18.35;45.50;97402.59;4209244;28;6504;-72
2022/04/28 16:21:08;;;;;;;;;;;;;;;18.32;47.30;97401.16;4201247;28;5125;-72
2022/04/28 16:23:09;;;;;;;;;;;;;;;18.41;45.62;97398.19;4204036;28;5806;-72